sensor_id;sensor_type;location;lat;lon;timestamp;pressure;altitude;pressure_sealevel;temperature;humidity
26859;BME280;14429;48.346;16.338;2023-05-29T00:01:51;99808.44;;;23.11;46.06
26859;BME280;14429;48.346;16.338;2023-05-29T00:04:18;99814.59;;;22.45;47.39
26859;BME280;14429;48.346;16.338;2023-05-29T00:06:43;99812.72;;;22.84;46.87
26859;BME280;14429;48.346;16.338;2023-05-29T00:09:09;99808.84;;;23.00;46.12
26859;BME280;14429;48.346;16.338;2023-05-29T00:11:34;99807.47;;;23.04;46.06
26859;BME280;14429;48.346;16.338;2023-05-29T00:14:00;99811.50;;;23.08;46.11
26859;BME280;14429;48.346;16.338;2023-05-29T00:16:25;99807.78;;;23.09;46.24
26859;BME280;14429;48.346;16.338;2023-05-29T00:18:51;99805.13;;;23.01;46.23
26859;BME280;14429;48.346;16.338;2023-05-29T00:23:43;99804.38;;;23.07;45.93
26859;BME280;14429;48.346;16.338;2023-05-29T00:26:08;99807.78;;;23.09;45.81
26859;BME280;14429;48.346;16.338;2023-05-29T00:28:35;99798.59;;;23.10;46.15
26859;BME280;14429;48.346;16.338;2023-05-29T00:31:00;99799.78;;;23.08;46.22
26859;BME280;14429;48.346;16.338;2023-05-29T00:33:26;99797.41;;;23.05;46.00
26859;BME280;14429;48.346;16.338;2023-05-29T00:35:51;99800.13;;;23.05;45.88
26859;BME280;14429;48.346;16.338;2023-05-29T00:38:18;99799.28;;;23.04;45.94
26859;BME280;14429;48.346;16.338;2023-05-29T00:40:43;99797.38;;;22.91;46.44
26859;BME280;14429;48.346;16.338;2023-05-29T00:43:09;99794.66;;;22.91;46.44
26859;BME280;14429;48.346;16.338;2023-05-29T00:45:34;99798.72;;;22.95;46.43
26859;BME280;14429;48.346;16.338;2023-05-29T00:48:00;99795.00;;;22.88;46.14
26859;BME280;14429;48.346;16.338;2023-05-29T00:50:25;99798.22;;;22.53;43.80
26859;BME280;14429;48.346;16.338;2023-05-29T00:52:51;99795.06;;;21.73;43.33
26859;BME280;14429;48.346;16.338;2023-05-29T00:55:17;99803.91;;;21.35;43.14
26859;BME280;14429;48.346;16.338;2023-05-29T00:57:43;99802.78;;;20.74;47.36
26859;BME280;14429;48.346;16.338;2023-05-29T01:00:09;99795.97;;;21.42;49.52
26859;BME280;14429;48.346;16.338;2023-05-29T01:02:36;99796.78;;;21.58;45.01
26859;BME280;14429;48.346;16.338;2023-05-29T01:05:01;99793.88;;;21.60;48.40
26859;BME280;14429;48.346;16.338;2023-05-29T01:07:27;99800.78;;;22.01;48.53
26859;BME280;14429;48.346;16.338;2023-05-29T01:09:52;99799.53;;;22.27;48.00
26859;BME280;14429;48.346;16.338;2023-05-29T01:12:27;99798.28;;;22.38;47.51
26859;BME280;14429;48.346;16.338;2023-05-29T01:15:12;99799.84;;;22.32;47.21
26859;BME280;14429;48.346;16.338;2023-05-29T01:17:47;99796.94;;;22.34;47.53
26859;BME280;14429;48.346;16.338;2023-05-29T01:20:24;99798.59;;;22.50;46.99
26859;BME280;14429;48.346;16.338;2023-05-29T01:23:02;99802.94;;;22.59;46.77
26859;BME280;14429;48.346;16.338;2023-05-29T01:25:39;99794.75;;;22.67;46.74
26859;BME280;14429;48.346;16.338;2023-05-29T01:28:13;99792.69;;;22.69;46.85
26859;BME280;14429;48.346;16.338;2023-05-29T01:30:40;99793.53;;;22.70;46.80
26859;BME280;14429;48.346;16.338;2023-05-29T01:33:06;99788.09;;;22.70;46.53
26859;BME280;14429;48.346;16.338;2023-05-29T01:35:32;99795.59;;;22.68;46.78
26859;BME280;14429;48.346;16.338;2023-05-29T01:37:58;99797.16;;;22.62;46.57
26859;BME280;14429;48.346;16.338;2023-05-29T01:40:23;99785.94;;;22.65;46.71
26859;BME280;14429;48.346;16.338;2023-05-29T01:42:49;99789.50;;;22.66;46.43
26859;BME280;14429;48.346;16.338;2023-05-29T01:45:16;99781.34;;;22.66;46.61
26859;BME280;14429;48.346;16.338;2023-05-29T01:47:42;99793.06;;;22.66;46.63
26859;BME280;14429;48.346;16.338;2023-05-29T01:50:09;99784.91;;;22.66;46.67
26859;BME280;14429;48.346;16.338;2023-05-29T01:52:35;99790.38;;;22.58;46.74
26859;BME280;14429;48.346;16.338;2023-05-29T01:55:01;99786.38;;;22.46;46.66
26859;BME280;14429;48.346;16.338;2023-05-29T01:57:27;99793.31;;;22.49;46.80
26859;BME280;14429;48.346;16.338;2023-05-29T01:59:54;99790.72;;;22.55;46.94
26859;BME280;14429;48.346;16.338;2023-05-29T02:02:21;99790.59;;;22.49;47.02
26859;BME280;14429;48.346;16.338;2023-05-29T02:04:46;99787.66;;;22.58;46.46
26859;BME280;14429;48.346;16.338;2023-05-29T02:07:12;99778.97;;;22.63;46.25
26859;BME280;14429;48.346;16.338;2023-05-29T02:09:37;99771.00;;;22.61;46.39
26859;BME280;14429;48.346;16.338;2023-05-29T02:12:03;99770.31;;;22.59;46.35
26859;BME280;14429;48.346;16.338;2023-05-29T02:14:30;99777.81;;;22.57;46.51
26859;BME280;14429;48.346;16.338;2023-05-29T02:16:56;99777.31;;;22.54;46.58
26859;BME280;14429;48.346;16.338;2023-05-29T02:19:23;99774.94;;;22.21;47.48
26859;BME280;14429;48.346;16.338;2023-05-29T02:21:48;99776.19;;;22.41;46.73
26859;BME280;14429;48.346;16.338;2023-05-29T02:24:14;99782.63;;;22.47;46.86
26859;BME280;14429;48.346;16.338;2023-05-29T02:26:39;99782.28;;;22.50;46.54
26859;BME280;14429;48.346;16.338;2023-05-29T02:29:07;99784.78;;;22.52;46.67
26859;BME280;14429;48.346;16.338;2023-05-29T02:31:33;99783.13;;;22.51;46.51
26859;BME280;14429;48.346;16.338;2023-05-29T02:33:59;99783.47;;;22.48;46.53
26859;BME280;14429;48.346;16.338;2023-05-29T02:36:25;99783.66;;;22.46;46.23
26859;BME280;14429;48.346;16.338;2023-05-29T02:38:51;99784.19;;;22.42;46.61
26859;BME280;14429;48.346;16.338;2023-05-29T02:41:19;99784.19;;;22.42;46.74
26859;BME280;14429;48.346;16.338;2023-05-29T02:43:45;99776.03;;;22.42;46.88
26859;BME280;14429;48.346;16.338;2023-05-29T02:46:10;99773.47;;;22.41;46.61
26859;BME280;14429;48.346;16.338;2023-05-29T02:48:36;99772.13;;;22.37;46.83
26859;BME280;14429;48.346;16.338;2023-05-29T02:51:01;99775.75;;;21.36;41.58
26859;BME280;14429;48.346;16.338;2023-05-29T02:53:28;99776.88;;;22.05;47.75
26859;BME280;14429;48.346;16.338;2023-05-29T02:55:53;99776.97;;;22.19;47.29
26859;BME280;14429;48.346;16.338;2023-05-29T02:58:19;99771.69;;;22.25;46.90
26859;BME280;14429;48.346;16.338;2023-05-29T03:00:44;99784.72;;;22.30;47.07
26859;BME280;14429;48.346;16.338;2023-05-29T03:03:09;99773.00;;;22.29;46.77
26859;BME280;14429;48.346;16.338;2023-05-29T03:05:35;99774.53;;;22.32;46.76
26859;BME280;14429;48.346;16.338;2023-05-29T03:08:00;99775.19;;;22.34;46.56
26859;BME280;14429;48.346;16.338;2023-05-29T03:10:27;99769.75;;;22.34;46.94
26859;BME280;14429;48.346;16.338;2023-05-29T03:12:52;99772.47;;;22.34;46.80
26859;BME280;14429;48.346;16.338;2023-05-29T03:15:18;99779.13;;;22.31;47.04
26859;BME280;14429;48.346;16.338;2023-05-29T03:17:43;99773.50;;;22.33;46.72
26859;BME280;14429;48.346;16.338;2023-05-29T03:20:10;99776.41;;;22.31;46.80
26859;BME280;14429;48.346;16.338;2023-05-29T03:22:35;99765.03;;;22.28;46.96
26859;BME280;14429;48.346;16.338;2023-05-29T03:25:01;99755.75;;;21.53;44.49
26859;BME280;14429;48.346;16.338;2023-05-29T03:27:28;99767.84;;;22.04;47.50
26859;BME280;14429;48.346;16.338;2023-05-29T03:29:53;99761.13;;;21.69;47.31
26859;BME280;14429;48.346;16.338;2023-05-29T03:32:19;99769.72;;;21.96;47.71
26859;BME280;14429;48.346;16.338;2023-05-29T03:34:44;99776.69;;;22.06;47.54
26859;BME280;14429;48.346;16.338;2023-05-29T03:37:10;99773.44;;;22.11;47.07
26859;BME280;14429;48.346;16.338;2023-05-29T03:39:35;99782.78;;;22.16;46.93
26859;BME280;14429;48.346;16.338;2023-05-29T03:42:01;99780.22;;;22.15;47.20
26859;BME280;14429;48.346;16.338;2023-05-29T03:44:27;99773.63;;;22.01;47.15
26859;BME280;14429;48.346;16.338;2023-05-29T03:46:53;99788.69;;;22.12;46.93
26859;BME280;14429;48.346;16.338;2023-05-29T03:49:18;99786.47;;;22.15;46.87
26859;BME280;14429;48.346;16.338;2023-05-29T03:51:44;99784.13;;;22.04;47.03
26859;BME280;14429;48.346;16.338;2023-05-29T03:54:09;99792.97;;;22.06;47.13
26859;BME280;14429;48.346;16.338;2023-05-29T03:56:34;99783.13;;;22.13;46.91
26859;BME280;14429;48.346;16.338;2023-05-29T03:59:00;99794.31;;;22.10;46.68
26859;BME280;14429;48.346;16.338;2023-05-29T04:01:27;99785.31;;;22.02;46.73
26859;BME280;14429;48.346;16.338;2023-05-29T04:03:53;99793.56;;;20.51;44.71
26859;BME280;14429;48.346;16.338;2023-05-29T04:06:18;99797.09;;;21.63;48.21
26859;BME280;14429;48.346;16.338;2023-05-29T04:08:43;99797.09;;;21.87;47.63
26859;BME280;14429;48.346;16.338;2023-05-29T04:11:09;99794.75;;;21.60;43.17
26859;BME280;14429;48.346;16.338;2023-05-29T04:13:34;99800.84;;;21.70;47.80
26859;BME280;14429;48.346;16.338;2023-05-29T04:16:00;99799.78;;;21.94;47.20
26859;BME280;14429;48.346;16.338;2023-05-29T04:18:26;99804.34;;;22.02;47.07
26859;BME280;14429;48.346;16.338;2023-05-29T04:20:52;99806.38;;;22.08;47.00
26859;BME280;14429;48.346;16.338;2023-05-29T04:23:17;99813.00;;;22.13;46.63
26859;BME280;14429;48.346;16.338;2023-05-29T04:25:43;99820.81;;;22.16;46.57
26859;BME280;14429;48.346;16.338;2023-05-29T04:28:08;99815.19;;;22.17;46.75
26859;BME280;14429;48.346;16.338;2023-05-29T04:30:34;99814.84;;;22.20;46.34
26859;BME280;14429;48.346;16.338;2023-05-29T04:32:59;99816.00;;;22.26;46.47
26859;BME280;14429;48.346;16.338;2023-05-29T04:35:26;99815.84;;;22.27;46.68
26859;BME280;14429;48.346;16.338;2023-05-29T04:37:51;99822.44;;;22.33;46.32
26859;BME280;14429;48.346;16.338;2023-05-29T04:40:17;99826.69;;;22.35;46.41
26859;BME280;14429;48.346;16.338;2023-05-29T04:42:42;99827.19;;;22.39;45.94
26859;BME280;14429;48.346;16.338;2023-05-29T04:45:08;99826.47;;;22.44;45.72
26859;BME280;14429;48.346;16.338;2023-05-29T04:47:34;99830.41;;;22.42;46.12
26859;BME280;14429;48.346;16.338;2023-05-29T04:50:00;99831.06;;;22.44;45.76
26859;BME280;14429;48.346;16.338;2023-05-29T04:52:26;99834.47;;;22.46;46.03
26859;BME280;14429;48.346;16.338;2023-05-29T04:54:52;99844.13;;;22.48;45.59
26859;BME280;14429;48.346;16.338;2023-05-29T04:57:18;99840.03;;;22.52;45.75
26859;BME280;14429;48.346;16.338;2023-05-29T04:59:43;99843.13;;;22.49;45.56
26859;BME280;14429;48.346;16.338;2023-05-29T05:02:09;99839.41;;;22.43;45.73
26859;BME280;14429;48.346;16.338;2023-05-29T05:04:34;99837.88;;;22.40;45.83
26859;BME280;14429;48.346;16.338;2023-05-29T05:07:00;99835.34;;;22.39;45.75
26859;BME280;14429;48.346;16.338;2023-05-29T05:09:26;99844.50;;;22.45;45.98
26859;BME280;14429;48.346;16.338;2023-05-29T05:11:52;99833.81;;;22.36;46.15
26859;BME280;14429;48.346;16.338;2023-05-29T05:14:17;99834.66;;;22.37;45.71
26859;BME280;14429;48.346;16.338;2023-05-29T05:16:43;99855.06;;;22.33;46.04
26859;BME280;14429;48.346;16.338;2023-05-29T05:19:08;99841.78;;;22.38;45.68
26859;BME280;14429;48.346;16.338;2023-05-29T05:21:33;99852.66;;;22.38;45.86
26859;BME280;14429;48.346;16.338;2023-05-29T05:23:59;99852.31;;;22.41;45.70
26859;BME280;14429;48.346;16.338;2023-05-29T05:26:26;99849.63;;;22.33;45.99
26859;BME280;14429;48.346;16.338;2023-05-29T05:28:52;99843.69;;;22.29;46.25
26859;BME280;14429;48.346;16.338;2023-05-29T05:31:17;99844.25;;;22.17;46.53
26859;BME280;14429;48.346;16.338;2023-05-29T05:33:42;99844.41;;;22.23;45.95
26859;BME280;14429;48.346;16.338;2023-05-29T05:36:08;99848.97;;;22.23;45.99
26859;BME280;14429;48.346;16.338;2023-05-29T05:38:33;99854.22;;;22.32;46.19
26859;BME280;14429;48.346;16.338;2023-05-29T05:40:59;99855.59;;;22.28;46.07
26859;BME280;14429;48.346;16.338;2023-05-29T05:43:25;99860.19;;;22.28;46.32
26859;BME280;14429;48.346;16.338;2023-05-29T05:45:51;99853.75;;;22.13;45.75
26859;BME280;14429;48.346;16.338;2023-05-29T05:48:16;99856.66;;;22.19;46.28
26859;BME280;14429;48.346;16.338;2023-05-29T05:50:42;99852.53;;;22.16;44.01
26859;BME280;14429;48.346;16.338;2023-05-29T05:53:07;99859.84;;;22.23;46.08
26859;BME280;14429;48.346;16.338;2023-05-29T05:55:32;99856.13;;;22.24;44.39
26859;BME280;14429;48.346;16.338;2023-05-29T05:57:58;99858.47;;;22.19;44.08
26859;BME280;14429;48.346;16.338;2023-05-29T06:00:25;99855.44;;;22.22;46.07
26859;BME280;14429;48.346;16.338;2023-05-29T06:02:50;99869.72;;;22.16;45.96
26859;BME280;14429;48.346;16.338;2023-05-29T06:05:16;99867.34;;;22.21;46.37
26859;BME280;14429;48.346;16.338;2023-05-29T06:07:41;99868.16;;;22.21;45.81
26859;BME280;14429;48.346;16.338;2023-05-29T06:10:08;99869.88;;;22.22;44.14
26859;BME280;14429;48.346;16.338;2023-05-29T06:12:33;99870.69;;;22.23;45.82
26859;BME280;14429;48.346;16.338;2023-05-29T06:14:59;99870.69;;;22.23;46.13
26859;BME280;14429;48.346;16.338;2023-05-29T06:17:26;99866.31;;;22.14;46.15
26859;BME280;14429;48.346;16.338;2023-05-29T06:19:51;99877.53;;;22.27;45.91
26859;BME280;14429;48.346;16.338;2023-05-29T06:22:17;99865.44;;;22.29;45.75
26859;BME280;14429;48.346;16.338;2023-05-29T06:24:42;99864.94;;;22.26;43.91
26859;BME280;14429;48.346;16.338;2023-05-29T06:27:07;99870.53;;;22.32;45.93
26859;BME280;14429;48.346;16.338;2023-05-29T06:29:33;99874.78;;;22.35;45.67
26859;BME280;14429;48.346;16.338;2023-05-29T06:31:59;99867.63;;;22.34;45.88
26859;BME280;14429;48.346;16.338;2023-05-29T06:34:25;99873.25;;;22.32;45.62
26859;BME280;14429;48.346;16.338;2023-05-29T06:36:51;99876.31;;;22.29;45.62
26859;BME280;14429;48.346;16.338;2023-05-29T06:39:16;99884.94;;;22.41;45.86
26859;BME280;14429;48.346;16.338;2023-05-29T06:41:42;99890.38;;;22.41;45.42
26859;BME280;14429;48.346;16.338;2023-05-29T06:44:07;99885.78;;;22.41;45.24
26859;BME280;14429;48.346;16.338;2023-05-29T06:46:32;99890.59;;;22.31;45.64
26859;BME280;14429;48.346;16.338;2023-05-29T06:48:58;99890.09;;;22.28;44.81
26859;BME280;14429;48.346;16.338;2023-05-29T06:51:25;99889.72;;;22.39;44.71
26859;BME280;14429;48.346;16.338;2023-05-29T06:53:51;99890.72;;;22.38;45.50
26859;BME280;14429;48.346;16.338;2023-05-29T06:56:16;99892.47;;;22.31;43.77
26859;BME280;14429;48.346;16.338;2023-05-29T06:58:42;99893.13;;;22.33;45.44
26859;BME280;14429;48.346;16.338;2023-05-29T07:01:07;99896.88;;;22.32;45.96
26859;BME280;14429;48.346;16.338;2023-05-29T07:03:32;99892.78;;;22.36;45.62
26859;BME280;14429;48.346;16.338;2023-05-29T07:05:58;99896.34;;;22.36;45.66
26859;BME280;14429;48.346;16.338;2023-05-29T07:08:25;99902.59;;;22.44;45.37
26859;BME280;14429;48.346;16.338;2023-05-29T07:10:50;99890.03;;;22.43;45.46
26859;BME280;14429;48.346;16.338;2023-05-29T07:13:16;99898.50;;;22.48;45.18
26859;BME280;14429;48.346;16.338;2023-05-29T07:15:42;99893.63;;;22.36;45.48
26859;BME280;14429;48.346;16.338;2023-05-29T07:18:07;99898.56;;;22.33;45.67
26859;BME280;14429;48.346;16.338;2023-05-29T07:20:34;99894.00;;;22.17;45.83
26859;BME280;14429;48.346;16.338;2023-05-29T07:22:59;99906.75;;;22.09;46.45
26859;BME280;14429;48.346;16.338;2023-05-29T07:25:26;99900.25;;;22.26;44.43
26859;BME280;14429;48.346;16.338;2023-05-29T07:27:52;99902.13;;;22.25;45.75
26859;BME280;14429;48.346;16.338;2023-05-29T07:30:17;99893.44;;;22.30;45.66
26859;BME280;14429;48.346;16.338;2023-05-29T07:32:42;99901.28;;;22.25;45.66
26859;BME280;14429;48.346;16.338;2023-05-29T07:35:08;99908.06;;;22.29;45.59
26859;BME280;14429;48.346;16.338;2023-05-29T07:37:34;99914.34;;;22.29;45.88
26859;BME280;14429;48.346;16.338;2023-05-29T07:39:59;99915.56;;;22.19;43.97
26859;BME280;14429;48.346;16.338;2023-05-29T07:42:26;99917.63;;;22.17;46.01
26859;BME280;14429;48.346;16.338;2023-05-29T07:44:51;99915.44;;;22.05;46.34
26859;BME280;14429;48.346;16.338;2023-05-29T07:47:17;99917.97;;;22.06;46.48
26859;BME280;14429;48.346;16.338;2023-05-29T07:49:42;99915.75;;;22.10;44.88
26859;BME280;14429;48.346;16.338;2023-05-29T07:52:08;99916.44;;;22.19;46.09
26859;BME280;14429;48.346;16.338;2023-05-29T07:54:33;99914.19;;;22.23;45.97
26859;BME280;14429;48.346;16.338;2023-05-29T07:56:59;99912.84;;;22.19;46.30
26859;BME280;14429;48.346;16.338;2023-05-29T07:59:26;99909.13;;;22.20;46.32
26859;BME280;14429;48.346;16.338;2023-05-29T08:01:51;99916.09;;;22.15;46.29
26859;BME280;14429;48.346;16.338;2023-05-29T08:04:17;99910.84;;;22.05;46.29
26859;BME280;14429;48.346;16.338;2023-05-29T08:06:43;99913.16;;;22.00;46.73
26859;BME280;14429;48.346;16.338;2023-05-29T08:09:09;99912.88;;;22.03;46.59
26859;BME280;14429;48.346;16.338;2023-05-29T08:11:34;99911.69;;;22.06;46.62
26859;BME280;14429;48.346;16.338;2023-05-29T08:13:59;99910.47;;;22.08;46.26
26859;BME280;14429;48.346;16.338;2023-05-29T08:16:26;99911.16;;;22.02;45.19
26859;BME280;14429;48.346;16.338;2023-05-29T08:18:52;99910.31;;;22.10;46.47
26859;BME280;14429;48.346;16.338;2023-05-29T08:21:17;99920.47;;;22.16;46.42
26859;BME280;14429;48.346;16.338;2023-05-29T08:23:42;99914.41;;;22.14;46.35
26859;BME280;14429;48.346;16.338;2023-05-29T08:26:08;99909.63;;;22.08;46.66
26859;BME280;14429;48.346;16.338;2023-05-29T08:28:33;99912.53;;;22.06;46.32
26859;BME280;14429;48.346;16.338;2023-05-29T08:30:59;99907.09;;;22.06;46.51
26859;BME280;14429;48.346;16.338;2023-05-29T08:33:25;99910.31;;;22.10;46.68
26859;BME280;14429;48.346;16.338;2023-05-29T08:35:51;99906.44;;;22.12;46.29
26859;BME280;14429;48.346;16.338;2023-05-29T08:38:16;99918.28;;;22.19;46.36
26859;BME280;14429;48.346;16.338;2023-05-29T08:40:42;99908.75;;;22.23;46.32
26859;BME280;14429;48.346;16.338;2023-05-29T08:43:11;99897.41;;;22.19;46.12
26859;BME280;14429;48.346;16.338;2023-05-29T08:45:42;99906.06;;;22.15;46.40
26859;BME280;14429;48.346;16.338;2023-05-29T08:48:09;99900.47;;;22.17;46.51
26859;BME280;14429;48.346;16.338;2023-05-29T08:50:36;99895.19;;;22.15;46.52
26859;BME280;14429;48.346;16.338;2023-05-29T08:53:03;99896.19;;;22.22;46.13
26859;BME280;14429;48.346;16.338;2023-05-29T08:55:29;99888.38;;;22.19;46.26
26859;BME280;14429;48.346;16.338;2023-05-29T08:57:56;99893.50;;;22.14;46.59
26859;BME280;14429;48.346;16.338;2023-05-29T09:00:22;99887.72;;;22.17;46.17
26859;BME280;14429;48.346;16.338;2023-05-29T09:02:49;99886.03;;;22.16;46.65
26859;BME280;14429;48.346;16.338;2023-05-29T09:05:14;99888.91;;;22.15;46.61
26859;BME280;14429;48.346;16.338;2023-05-29T09:07:41;99889.63;;;22.09;46.72
26859;BME280;14429;48.346;16.338;2023-05-29T09:10:08;99883.31;;;22.24;46.36
26859;BME280;14429;48.346;16.338;2023-05-29T09:12:34;99886.63;;;22.42;47.42
26859;BME280;14429;48.346;16.338;2023-05-29T09:15:00;99880.84;;;22.44;45.65
26859;BME280;14429;48.346;16.338;2023-05-29T09:17:30;99877.59;;;22.49;45.71
26859;BME280;14429;48.346;16.338;2023-05-29T09:19:56;99889.00;;;22.44;45.94
26859;BME280;14429;48.346;16.338;2023-05-29T09:22:21;99879.34;;;22.34;46.24
26859;BME280;14429;48.346;16.338;2023-05-29T09:24:48;99883.53;;;22.52;45.82
26859;BME280;14429;48.346;16.338;2023-05-29T09:27:14;99879.84;;;22.38;45.81
26859;BME280;14429;48.346;16.338;2023-05-29T09:29:41;99871.75;;;22.22;46.37
26859;BME280;14429;48.346;16.338;2023-05-29T09:32:07;99878.06;;;22.68;43.50
26859;BME280;14429;48.346;16.338;2023-05-29T09:34:33;99882.81;;;22.66;42.69
26859;BME280;14429;48.346;16.338;2023-05-29T09:37:01;99871.03;;;22.73;38.05
26859;BME280;14429;48.346;16.338;2023-05-29T09:39:26;99869.66;;;22.85;43.20
26859;BME280;14429;48.346;16.338;2023-05-29T09:41:53;99876.28;;;22.91;35.95
26859;BME280;14429;48.346;16.338;2023-05-29T09:44:20;99869.72;;;23.07;36.47
26859;BME280;14429;48.346;16.338;2023-05-29T09:46:48;99879.59;;;23.30;35.61
26859;BME280;14429;48.346;16.338;2023-05-29T09:49:14;99870.56;;;23.30;33.46
26859;BME280;14429;48.346;16.338;2023-05-29T09:51:39;99875.47;;;23.34;35.18
26859;BME280;14429;48.346;16.338;2023-05-29T09:54:15;99886.31;;;23.42;33.47
26859;BME280;14429;48.346;16.338;2023-05-29T09:56:42;99872.25;;;23.31;40.55
26859;BME280;14429;48.346;16.338;2023-05-29T09:59:10;99872.28;;;23.75;34.57
26859;BME280;14429;48.346;16.338;2023-05-29T10:01:36;99876.19;;;23.58;35.08
26859;BME280;14429;48.346;16.338;2023-05-29T10:04:04;99874.72;;;23.70;39.52
26859;BME280;14429;48.346;16.338;2023-05-29T10:06:30;99880.31;;;23.77;35.52
26859;BME280;14429;48.346;16.338;2023-05-29T10:08:58;99881.63;;;23.80;34.37
26859;BME280;14429;48.346;16.338;2023-05-29T10:11:24;99878.56;;;23.61;37.24
26859;BME280;14429;48.346;16.338;2023-05-29T10:13:51;99869.47;;;23.69;33.35
26859;BME280;14429;48.346;16.338;2023-05-29T10:16:20;99870.72;;;23.80;33.01
26859;BME280;14429;48.346;16.338;2023-05-29T10:18:50;99874.53;;;23.72;34.07
26859;BME280;14429;48.346;16.338;2023-05-29T10:21:17;99870.38;;;23.61;35.44
26859;BME280;14429;48.346;16.338;2023-05-29T10:23:47;99868.91;;;23.73;38.26
26859;BME280;14429;48.346;16.338;2023-05-29T10:26:15;99872.69;;;23.72;35.55
26859;BME280;14429;48.346;16.338;2023-05-29T10:28:46;99871.38;;;23.82;35.38
26859;BME280;14429;48.346;16.338;2023-05-29T10:31:18;99858.66;;;23.75;33.51
26859;BME280;14429;48.346;16.338;2023-05-29T10:33:56;99867.38;;;23.93;34.10
26859;BME280;14429;48.346;16.338;2023-05-29T10:36:30;99863.69;;;23.86;35.04
26859;BME280;14429;48.346;16.338;2023-05-29T10:39:00;99869.06;;;23.57;41.75
26859;BME280;14429;48.346;16.338;2023-05-29T10:41:32;99859.78;;;23.66;36.21
26859;BME280;14429;48.346;16.338;2023-05-29T10:43:58;99852.78;;;23.86;35.71
26859;BME280;14429;48.346;16.338;2023-05-29T10:49:24;99850.09;;;24.00;34.04
26859;BME280;14429;48.346;16.338;2023-05-29T10:51:50;99850.53;;;23.89;40.99
26859;BME280;14429;48.346;16.338;2023-05-29T10:54:16;99851.59;;;24.03;34.02
26859;BME280;14429;48.346;16.338;2023-05-29T10:56:44;99839.38;;;24.13;33.60
26859;BME280;14429;48.346;16.338;2023-05-29T10:59:17;99848.16;;;24.23;34.91
26859;BME280;14429;48.346;16.338;2023-05-29T11:01:43;99846.38;;;24.15;34.79
26859;BME280;14429;48.346;16.338;2023-05-29T11:04:28;99855.75;;;23.99;36.93
26859;BME280;14429;48.346;16.338;2023-05-29T11:06:53;99849.16;;;23.71;41.07
26859;BME280;14429;48.346;16.338;2023-05-29T11:09:27;99856.69;;;23.69;33.95
26859;BME280;14429;48.346;16.338;2023-05-29T11:12:11;99850.22;;;23.70;40.39
26859;BME280;14429;48.346;16.338;2023-05-29T11:14:44;99843.03;;;23.91;37.36
26859;BME280;14429;48.346;16.338;2023-05-29T11:17:28;99841.66;;;24.09;33.52
26859;BME280;14429;48.346;16.338;2023-05-29T11:19:56;99846.06;;;24.10;33.67
26859;BME280;14429;48.346;16.338;2023-05-29T11:22:25;99842.16;;;24.27;34.14
26859;BME280;14429;48.346;16.338;2023-05-29T11:24:52;99835.75;;;24.20;34.76
26859;BME280;14429;48.346;16.338;2023-05-29T11:27:18;99838.59;;;24.27;34.70
26859;BME280;14429;48.346;16.338;2023-05-29T11:29:44;99838.50;;;24.34;32.72
26859;BME280;14429;48.346;16.338;2023-05-29T11:32:14;99847.44;;;24.43;33.15
26859;BME280;14429;48.346;16.338;2023-05-29T11:34:43;99838.41;;;24.28;39.48
26859;BME280;14429;48.346;16.338;2023-05-29T11:37:11;99838.41;;;24.28;37.31
26859;BME280;14429;48.346;16.338;2023-05-29T11:39:37;99839.53;;;24.48;33.58
26859;BME280;14429;48.346;16.338;2023-05-29T11:42:02;99838.59;;;24.41;33.81
26859;BME280;14429;48.346;16.338;2023-05-29T11:44:28;99832.84;;;24.50;31.95
26859;BME280;14429;48.346;16.338;2023-05-29T11:47:00;99830.66;;;24.74;33.32
26859;BME280;14429;48.346;16.338;2023-05-29T11:49:28;99842.06;;;24.35;31.26
26859;BME280;14429;48.346;16.338;2023-05-29T11:51:53;99836.13;;;24.46;32.81
26859;BME280;14429;48.346;16.338;2023-05-29T11:54:21;99840.66;;;24.39;31.41
26859;BME280;14429;48.346;16.338;2023-05-29T11:56:47;99832.47;;;24.53;31.83
26859;BME280;14429;48.346;16.338;2023-05-29T11:59:12;99840.63;;;24.67;32.35
26859;BME280;14429;48.346;16.338;2023-05-29T12:01:38;99823.44;;;24.67;33.02
26859;BME280;14429;48.346;16.338;2023-05-29T12:04:13;99826.25;;;24.73;31.22
26859;BME280;14429;48.346;16.338;2023-05-29T12:06:39;99834.34;;;24.53;38.80
26859;BME280;14429;48.346;16.338;2023-05-29T12:09:04;99826.25;;;24.73;32.07
26859;BME280;14429;48.346;16.338;2023-05-29T12:11:31;99822.22;;;24.69;32.18
26859;BME280;14429;48.346;16.338;2023-05-29T12:13:57;99812.28;;;24.97;32.54
26859;BME280;14429;48.346;16.338;2023-05-29T12:16:23;99812.78;;;24.72;31.55
26859;BME280;14429;48.346;16.338;2023-05-29T12:18:49;99822.47;;;24.74;31.48
26859;BME280;14429;48.346;16.338;2023-05-29T12:21:14;99819.88;;;24.81;31.67
26859;BME280;14429;48.346;16.338;2023-05-29T12:23:40;99810.97;;;24.93;31.41
26859;BME280;14429;48.346;16.338;2023-05-29T12:26:05;99804.34;;;24.81;31.64
26859;BME280;14429;48.346;16.338;2023-05-29T12:28:32;99814.75;;;24.92;33.41
26859;BME280;14429;48.346;16.338;2023-05-29T12:30:58;99807.78;;;24.75;34.29
26859;BME280;14429;48.346;16.338;2023-05-29T12:33:25;99806.16;;;24.95;32.46
26859;BME280;14429;48.346;16.338;2023-05-29T12:35:51;99807.41;;;24.78;32.80
26859;BME280;14429;48.346;16.338;2023-05-29T12:38:18;99808.56;;;24.69;32.88
26859;BME280;14429;48.346;16.338;2023-05-29T12:40:48;99799.13;;;24.72;33.79
26859;BME280;14429;48.346;16.338;2023-05-29T12:43:13;99806.00;;;24.68;34.88
26859;BME280;14429;48.346;16.338;2023-05-29T12:45:40;99793.88;;;24.85;32.52
26859;BME280;14429;48.346;16.338;2023-05-29T12:48:07;99800.19;;;24.85;32.91
26859;BME280;14429;48.346;16.338;2023-05-29T12:50:34;99808.50;;;24.98;30.16
26859;BME280;14429;48.346;16.338;2023-05-29T12:53:01;99803.84;;;24.92;30.33